Time;durP1;ratioP1;P1;durP2;ratioP2;P2;SDS_P1;SDS_P2;PMS_P1;PMS_P2;Temp;Humidity;BMP_temperature;BMP_pressure;BME280_temperature;BME280_humidity;BME280_pressure;Samples;Min_cycle;Max_cycle;Signal;HPM_P1;HPM_P2
2023/03/25 00:00:58;;;;;;;;;;;25.00;99.90;;;;;;4916648;29;19922;-48
2023/03/25 00:03:25;;;;;;;;;;;25.00;99.90;;;;;;4917356;29;19911;-48
2023/03/25 00:05:51;;;;;;;;;;;25.00;99.90;;;;;;4917035;29;19914;-49
2023/03/25 00:08:17;;;;;;;;;;;25.00;99.90;;;;;;4917324;29;19911;-48
2023/03/25 00:10:42;;;;;;;;;;;24.90;99.90;;;;;;4917080;29;19930;-48
2023/03/25 00:13:12;;;;;;;;;;;24.90;99.90;;;;;;4917118;29;19911;-48
2023/03/25 00:15:41;;;;;;;;;;;25.00;99.90;;;;;;4917149;29;20009;-49
2023/03/25 00:18:07;;;;;;;;;;;24.90;99.90;;;;;;4917016;29;19918;-49
2023/03/25 00:20:32;;;;;;;;;;;24.90;99.90;;;;;;4916863;29;19911;-48
2023/03/25 00:22:58;;;;;;;;;;;24.90;99.90;;;;;;4917032;29;19946;-48
2023/03/25 00:25:24;;;;;;;;;;;24.90;99.90;;;;;;4917186;29;19908;-48
2023/03/25 00:27:49;;;;;;;;;;;24.90;99.90;;;;;;4916778;29;20360;-48
2023/03/25 00:30:16;;;;;;;;;;;24.90;99.90;;;;;;4917210;29;19907;-48
2023/03/25 00:32:44;;;;;;;;;;;24.90;99.90;;;;;;4916770;29;19907;-48
2023/03/25 00:35:12;;;;;;;;;;;24.90;99.90;;;;;;4916606;29;19997;-48
2023/03/25 00:37:38;;;;;;;;;;;24.90;99.90;;;;;;4916578;29;19911;-48
2023/03/25 00:40:04;;;;;;;;;;;24.90;99.90;;;;;;4916637;29;19915;-48
2023/03/25 00:42:30;;;;;;;;;;;24.90;99.90;;;;;;4916439;29;20356;-48
2023/03/25 00:44:56;;;;;;;;;;;24.80;99.90;;;;;;4916687;29;20057;-48
2023/03/25 00:47:21;;;;;;;;;;;24.90;99.90;;;;;;4916479;29;19907;-48
2023/03/25 00:49:47;;;;;;;;;;;24.80;99.90;;;;;;4916709;29;19907;-48
2023/03/25 00:52:14;;;;;;;;;;;24.90;99.90;;;;;;4916474;29;20344;-48
2023/03/25 00:54:40;;;;;;;;;;;24.80;99.90;;;;;;4916453;29;19914;-48
2023/03/25 00:57:06;;;;;;;;;;;24.80;99.90;;;;;;4916499;29;20356;-48
2023/03/25 00:59:31;;;;;;;;;;;24.80;99.90;;;;;;4916682;29;19938;-49
2023/03/25 01:01:57;;;;;;;;;;;24.80;99.90;;;;;;4916289;29;19993;-48
2023/03/25 01:04:23;;;;;;;;;;;24.80;99.90;;;;;;4916290;29;20253;-48
2023/03/25 01:06:50;;;;;;;;;;;24.80;99.90;;;;;;4916650;29;19954;-48
2023/03/25 01:09:17;;;;;;;;;;;24.80;99.90;;;;;;4916307;29;19962;-48
2023/03/25 01:11:43;;;;;;;;;;;24.80;99.90;;;;;;4915582;29;19911;-48
2023/03/25 01:14:15;;;;;;;;;;;24.80;99.90;;;;;;4916347;29;20272;-48
2023/03/25 01:16:41;;;;;;;;;;;24.80;99.90;;;;;;4916334;29;20310;-48
2023/03/25 01:19:06;;;;;;;;;;;24.70;99.90;;;;;;4916110;29;20972;-48
2023/03/25 01:21:35;;;;;;;;;;;24.70;99.90;;;;;;4930750;29;19907;-49
2023/03/25 01:24:00;;;;;;;;;;;24.70;99.90;;;;;;4916138;29;19915;-48
2023/03/25 01:26:26;;;;;;;;;;;24.80;99.90;;;;;;4916077;29;19907;-48
2023/03/25 01:28:52;;;;;;;;;;;24.70;99.90;;;;;;4916300;29;19935;-54
2023/03/25 01:31:18;;;;;;;;;;;24.70;99.90;;;;;;4916165;29;19915;-49
2023/03/25 01:33:44;;;;;;;;;;;24.70;99.90;;;;;;4916141;29;19915;-49
2023/03/25 01:36:11;;;;;;;;;;;24.70;99.90;;;;;;4916194;29;20344;-49
2023/03/25 01:38:37;;;;;;;;;;;24.70;99.90;;;;;;4916048;29;19911;-48
2023/03/25 01:41:03;;;;;;;;;;;24.70;99.90;;;;;;4916040;29;19915;-49
2023/03/25 01:43:30;;;;;;;;;;;24.70;99.90;;;;;;4915984;29;19949;-48
2023/03/25 01:45:56;;;;;;;;;;;24.70;99.90;;;;;;4915907;29;19907;-48
2023/03/25 01:48:27;;;;;;;;;;;24.70;99.90;;;;;;4916273;29;20332;-48
2023/03/25 01:50:56;;;;;;;;;;;24.70;99.90;;;;;;4915996;29;19962;-48
2023/03/25 01:53:21;;;;;;;;;;;24.70;99.90;;;;;;4916204;29;20252;-48
2023/03/25 01:55:47;;;;;;;;;;;24.70;99.90;;;;;;4915603;29;20054;-48
2023/03/25 01:58:15;;;;;;;;;;;24.60;99.90;;;;;;4915446;29;19938;-49
2023/03/25 02:00:42;;;;;;;;;;;24.70;99.90;;;;;;4916234;29;19923;-48
2023/03/25 02:03:08;;;;;;;;;;;24.70;99.90;;;;;;4916036;29;19907;-47
2023/03/25 02:05:34;;;;;;;;;;;24.70;99.90;;;;;;4915761;29;19907;-48
2023/03/25 02:08:02;;;;;;;;;;;24.60;99.90;;;;;;4915649;29;20282;-48
2023/03/25 02:10:28;;;;;;;;;;;24.60;99.90;;;;;;4915732;29;20034;-47
2023/03/25 02:12:53;;;;;;;;;;;24.60;99.90;;;;;;4914621;29;20013;-48
2023/03/25 02:15:19;;;;;;;;;;;24.60;99.90;;;;;;4915585;29;19911;-47
2023/03/25 02:17:45;;;;;;;;;;;24.60;99.90;;;;;;4915739;29;19916;-51
2023/03/25 02:20:13;;;;;;;;;;;24.70;99.90;;;;;;4915548;29;19965;-48
2023/03/25 02:22:48;;;;;;;;;;;24.60;99.90;;;;;;4930367;29;20350;-48
2023/03/25 02:25:18;;;;;;;;;;;24.60;99.90;;;;;;4918913;29;19986;-47
2023/03/25 02:27:47;;;;;;;;;;;24.60;99.90;;;;;;4919105;29;19914;-48
2023/03/25 02:30:25;;;;;;;;;;;24.60;99.90;;;;;;4919011;29;19963;-48
2023/03/25 02:32:51;;;;;;;;;;;24.60;99.90;;;;;;4919184;29;19994;-48
2023/03/25 02:35:35;;;;;;;;;;;24.60;99.90;;;;;;4918811;29;20394;-48
2023/03/25 02:38:12;;;;;;;;;;;24.60;99.90;;;;;;4918793;29;19975;-47
2023/03/25 02:40:41;;;;;;;;;;;24.50;99.90;;;;;;4918727;29;19954;-47
2023/03/25 02:43:17;;;;;;;;;;;24.60;99.90;;;;;;4918954;29;19915;-47
2023/03/25 02:45:45;;;;;;;;;;;24.60;99.90;;;;;;4918969;29;20282;-48
2023/03/25 02:48:14;;;;;;;;;;;24.60;99.90;;;;;;4933375;29;19907;-47
2023/03/25 02:50:42;;;;;;;;;;;24.50;99.90;;;;;;4933360;29;19914;-48
2023/03/25 02:53:10;;;;;;;;;;;24.50;99.90;;;;;;4918764;29;19907;-48
2023/03/25 02:55:36;;;;;;;;;;;24.50;99.90;;;;;;4949159;29;19911;-48
2023/03/25 02:58:03;;;;;;;;;;;24.50;99.90;;;;;;4933074;29;19946;-48
2023/03/25 03:00:29;;;;;;;;;;;24.50;99.90;;;;;;4933458;29;19919;-48
2023/03/25 03:03:02;;;;;;;;;;;24.50;99.90;;;;;;4918502;29;20006;-48
2023/03/25 03:05:36;;;;;;;;;;;24.50;99.90;;;;;;4918631;29;19907;-48
2023/03/25 03:08:13;;;;;;;;;;;24.50;99.90;;;;;;4918543;29;19955;-48
2023/03/25 03:10:57;;;;;;;;;;;24.50;99.90;;;;;;4933007;29;19907;-48
2023/03/25 03:13:26;;;;;;;;;;;24.50;99.90;;;;;;4932972;29;20356;-48
2023/03/25 03:15:57;;;;;;;;;;;24.50;99.90;;;;;;4918183;29;20272;-48
2023/03/25 03:18:33;;;;;;;;;;;24.50;99.90;;;;;;4918184;29;20321;-48
2023/03/25 03:21:22;;;;;;;;;;;24.50;99.90;;;;;;4918097;29;19907;-48
2023/03/25 03:23:53;;;;;;;;;;;24.50;99.90;;;;;;4917973;29;19911;-47
2023/03/25 03:26:34;;;;;;;;;;;24.50;99.90;;;;;;4918096;29;20244;-48
2023/03/25 03:29:04;;;;;;;;;;;24.50;99.90;;;;;;4917948;29;20015;-48
2023/03/25 03:31:44;;;;;;;;;;;24.50;99.90;;;;;;4918245;29;19907;-48
2023/03/25 03:34:13;;;;;;;;;;;24.50;99.90;;;;;;4917674;29;20006;-46
2023/03/25 03:36:45;;;;;;;;;;;24.50;99.90;;;;;;4917877;29;19907;-47
2023/03/25 03:39:19;;;;;;;;;;;24.40;99.90;;;;;;4917727;29;19915;-46
2023/03/25 03:41:47;;;;;;;;;;;24.40;99.90;;;;;;4918068;29;19907;-47
2023/03/25 03:44:15;;;;;;;;;;;24.40;99.90;;;;;;4948454;29;19911;-48
2023/03/25 03:46:44;;;;;;;;;;;24.40;99.90;;;;;;4948354;29;19907;-47
2023/03/25 03:49:13;;;;;;;;;;;24.40;99.90;;;;;;4917726;29;19907;-48
2023/03/25 03:51:44;;;;;;;;;;;24.40;99.90;;;;;;4948323;29;19911;-47
2023/03/25 03:54:16;;;;;;;;;;;24.40;99.90;;;;;;4917578;29;20386;-48
2023/03/25 03:56:46;;;;;;;;;;;24.40;99.90;;;;;;4917713;29;19955;-47
2023/03/25 03:59:28;;;;;;;;;;;24.40;99.90;;;;;;4917657;29;20356;-49
2023/03/25 04:02:05;;;;;;;;;;;24.40;99.90;;;;;;4916496;29;19981;-48
2023/03/25 04:04:33;;;;;;;;;;;24.40;99.90;;;;;;4916712;29;20384;-49
2023/03/25 04:07:16;;;;;;;;;;;24.40;99.90;;;;;;4916476;29;19950;-49
2023/03/25 04:09:54;;;;;;;;;;;24.30;99.90;;;;;;4912319;29;20318;-51
2023/03/25 04:12:21;;;;;;;;;;;24.30;99.90;;;;;;4912662;29;20002;-48
2023/03/25 04:14:47;;;;;;;;;;;24.30;99.90;;;;;;4916670;29;20118;-49
2023/03/25 04:17:12;;;;;;;;;;;24.30;99.90;;;;;;4916339;29;19907;-48
2023/03/25 04:19:38;;;;;;;;;;;24.30;99.90;;;;;;4916398;29;19915;-49
2023/03/25 04:22:04;;;;;;;;;;;24.30;99.90;;;;;;4916214;29;19966;-49
2023/03/25 04:24:30;;;;;;;;;;;24.30;99.90;;;;;;4930853;29;20347;-49
2023/03/25 04:26:58;;;;;;;;;;;24.30;99.90;;;;;;4930820;29;19907;-48
2023/03/25 04:29:24;;;;;;;;;;;24.30;99.90;;;;;;4916365;29;19907;-49
2023/03/25 04:31:53;;;;;;;;;;;24.30;99.90;;;;;;4916199;29;19907;-48
2023/03/25 04:34:19;;;;;;;;;;;24.30;99.90;;;;;;4916132;29;20001;-48
2023/03/25 04:36:45;;;;;;;;;;;24.30;99.90;;;;;;4916054;29;19975;-48
2023/03/25 04:39:11;;;;;;;;;;;24.30;99.90;;;;;;4915778;29;20343;-48
2023/03/25 04:41:37;;;;;;;;;;;24.30;99.90;;;;;;4915999;29;19958;-46
2023/03/25 04:44:06;;;;;;;;;;;24.30;99.90;;;;;;4915918;29;20142;-47
2023/03/25 04:46:33;;;;;;;;;;;24.30;99.90;;;;;;4915707;29;19914;-46
2023/03/25 04:48:59;;;;;;;;;;;24.20;99.90;;;;;;4911115;29;19914;-48
2023/03/25 04:51:25;;;;;;;;;;;24.20;99.90;;;;;;4906080;29;19907;-46
2023/03/25 04:53:51;;;;;;;;;;;24.20;99.90;;;;;;4915732;29;19969;-46
2023/03/25 04:56:17;;;;;;;;;;;24.20;99.90;;;;;;4916101;29;20005;-46
2023/03/25 04:58:43;;;;;;;;;;;24.20;99.90;;;;;;4930046;29;19911;-46
2023/03/25 05:01:36;;;;;;;;;;;24.20;99.90;;;;;;4865151;29;1529255;-47
2023/03/25 05:04:04;;;;;;;;;;;24.20;99.90;;;;;;4916065;29;19914;-47
2023/03/25 05:06:33;;;;;;;;;;;24.20;99.90;;;;;;4916314;29;20364;-46
2023/03/25 05:09:00;;;;;;;;;;;24.20;99.90;;;;;;4916279;29;19907;-46
2023/03/25 05:11:29;;;;;;;;;;;24.10;99.90;;;;;;4916389;29;19907;-47
2023/03/25 05:13:55;;;;;;;;;;;24.20;99.90;;;;;;4916287;29;19914;-48
2023/03/25 05:16:21;;;;;;;;;;;24.10;99.90;;;;;;4916458;29;20331;-46
2023/03/25 05:18:46;;;;;;;;;;;24.10;99.90;;;;;;4915932;29;19924;-47
2023/03/25 05:21:12;;;;;;;;;;;24.10;99.90;;;;;;4916231;29;19926;-47
2023/03/25 05:23:38;;;;;;;;;;;24.10;99.90;;;;;;4916190;29;20352;-47
2023/03/25 05:26:05;;;;;;;;;;;24.10;99.90;;;;;;4911855;29;20316;-47
2023/03/25 05:28:30;;;;;;;;;;;24.10;99.90;;;;;;4911431;29;19907;-47
2023/03/25 05:30:56;;;;;;;;;;;24.10;99.90;;;;;;4916271;29;19997;-47
2023/03/25 05:33:22;;;;;;;;;;;24.10;99.90;;;;;;4916445;29;20339;-47
2023/03/25 05:35:48;;;;;;;;;;;24.10;99.90;;;;;;4916420;29;20001;-47
2023/03/25 05:38:17;;;;;;;;;;;24.10;99.90;;;;;;4916077;29;20360;-47
2023/03/25 05:40:45;;;;;;;;;;;24.10;99.90;;;;;;4916043;29;19938;-46
2023/03/25 05:43:11;;;;;;;;;;;24.10;99.90;;;;;;4916110;29;19926;-47
2023/03/25 05:45:36;;;;;;;;;;;24.10;99.90;;;;;;4916063;29;20257;-46
2023/03/25 05:48:02;;;;;;;;;;;24.10;99.90;;;;;;4916007;29;20357;-47
2023/03/25 05:50:28;;;;;;;;;;;24.00;99.90;;;;;;4915871;29;19907;-46
2023/03/25 05:52:54;;;;;;;;;;;24.00;99.90;;;;;;4916024;29;19955;-47
2023/03/25 05:55:21;;;;;;;;;;;24.00;99.90;;;;;;4916027;29;19908;-47
2023/03/25 05:57:47;;;;;;;;;;;24.00;99.90;;;;;;4916332;29;20355;-46
2023/03/25 06:00:14;;;;;;;;;;;24.00;99.90;;;;;;4919762;29;19919;-47
2023/03/25 06:02:41;;;;;;;;;;;24.00;99.90;;;;;;4934168;29;19911;-47
2023/03/25 06:05:14;;;;;;;;;;;24.00;99.90;;;;;;4919535;29;20291;-47
2023/03/25 06:07:44;;;;;;;;;;;24.00;99.90;;;;;;4919520;29;19954;-47
2023/03/25 06:10:10;;;;;;;;;;;23.90;99.90;;;;;;4919445;29;19914;-47
2023/03/25 06:12:39;;;;;;;;;;;24.00;99.90;;;;;;4919460;29;19914;-47
2023/03/25 06:15:06;;;;;;;;;;;23.90;99.90;;;;;;4919410;29;19907;-46
2023/03/25 06:17:33;;;;;;;;;;;24.00;99.90;;;;;;4919261;29;19914;-47
2023/03/25 06:20:08;;;;;;;;;;;23.90;99.90;;;;;;4919388;29;19915;-48
2023/03/25 06:22:36;;;;;;;;;;;23.90;99.90;;;;;;4919261;29;19907;-47
2023/03/25 06:25:02;;;;;;;;;;;23.90;99.90;;;;;;4919180;29;19962;-47
2023/03/25 06:27:27;;;;;;;;;;;23.90;99.90;;;;;;4918855;29;19907;-47
2023/03/25 06:29:53;;;;;;;;;;;23.90;99.90;;;;;;4919298;29;20320;-47
2023/03/25 06:32:19;;;;;;;;;;;23.90;99.90;;;;;;4919042;29;19907;-47
2023/03/25 06:34:44;;;;;;;;;;;23.90;99.90;;;;;;4919049;29;20009;-47
2023/03/25 06:37:10;;;;;;;;;;;23.90;99.90;;;;;;4918802;29;19914;-47
2023/03/25 06:39:38;;;;;;;;;;;23.90;99.90;;;;;;4918704;29;19979;-47
2023/03/25 06:42:04;;;;;;;;;;;23.90;99.90;;;;;;4933447;29;19911;-47
2023/03/25 06:44:30;;;;;;;;;;;23.90;99.90;;;;;;4918843;29;19907;-48
2023/03/25 06:46:56;;;;;;;;;;;23.90;99.90;;;;;;4918986;29;19914;-47
2023/03/25 06:49:21;;;;;;;;;;;23.90;99.90;;;;;;4919263;29;19990;-47
2023/03/25 06:51:47;;;;;;;;;;;23.90;99.90;;;;;;4918709;29;19911;-46
2023/03/25 06:54:13;;;;;;;;;;;23.90;99.90;;;;;;4933203;29;20002;-47
2023/03/25 06:56:39;;;;;;;;;;;23.90;99.90;;;;;;4918578;29;19954;-47
2023/03/25 06:59:05;;;;;;;;;;;23.90;99.90;;;;;;4918350;29;20006;-47
2023/03/25 07:01:30;;;;;;;;;;;23.90;99.90;;;;;;4918465;29;19926;-47
2023/03/25 07:03:56;;;;;;;;;;;23.90;99.90;;;;;;4918606;29;19981;-47
2023/03/25 07:06:22;;;;;;;;;;;23.90;99.90;;;;;;4918394;29;19907;-47
2023/03/25 07:08:48;;;;;;;;;;;23.90;99.90;;;;;;4932558;29;19922;-47
2023/03/25 07:11:15;;;;;;;;;;;23.90;99.90;;;;;;4917613;29;20349;-47
2023/03/25 07:13:40;;;;;;;;;;;23.90;99.90;;;;;;4918341;29;20391;-47
2023/03/25 07:16:06;;;;;;;;;;;24.00;99.90;;;;;;4918103;29;19907;-47
2023/03/25 07:18:32;;;;;;;;;;;24.00;99.90;;;;;;4918254;29;20356;-47
2023/03/25 07:20:57;;;;;;;;;;;24.00;99.90;;;;;;4918300;29;19921;-47
2023/03/25 07:23:23;;;;;;;;;;;24.00;99.90;;;;;;4948714;29;19913;-47
2023/03/25 07:25:49;;;;;;;;;;;24.00;99.90;;;;;;4918110;29;20332;-47
2023/03/25 07:28:15;;;;;;;;;;;24.00;99.90;;;;;;4918083;29;19907;-48
2023/03/25 07:30:40;;;;;;;;;;;24.00;99.90;;;;;;4918079;29;20395;-48
2023/03/25 07:33:06;;;;;;;;;;;24.00;99.90;;;;;;4918026;29;19907;-48
2023/03/25 07:35:32;;;;;;;;;;;24.00;99.90;;;;;;4917709;29;20059;-47
2023/03/25 07:37:57;;;;;;;;;;;24.00;99.90;;;;;;4918079;29;20391;-48
2023/03/25 07:40:23;;;;;;;;;;;24.00;99.90;;;;;;4917769;29;19924;-48
2023/03/25 07:42:48;;;;;;;;;;;24.00;99.90;;;;;;4919726;29;19982;-47
2023/03/25 07:45:14;;;;;;;;;;;24.10;99.90;;;;;;4917812;29;20027;-48
2023/03/25 07:47:40;;;;;;;;;;;24.10;99.90;;;;;;4917618;29;20279;-47
2023/03/25 07:50:06;;;;;;;;;;;24.10;99.90;;;;;;4917724;29;20014;-48
2023/03/25 07:52:31;;;;;;;;;;;24.10;99.90;;;;;;4917496;29;19907;-47
2023/03/25 07:54:59;;;;;;;;;;;24.10;99.90;;;;;;4917841;29;19918;-48
2023/03/25 07:57:25;;;;;;;;;;;24.10;99.90;;;;;;4917469;29;20380;-47
2023/03/25 07:59:50;;;;;;;;;;;24.10;99.90;;;;;;4917235;29;20057;-47
2023/03/25 08:02:16;;;;;;;;;;;24.10;99.90;;;;;;4917282;29;19918;-47
2023/03/25 08:04:42;;;;;;;;;;;24.10;99.90;;;;;;4917475;29;19907;-47
2023/03/25 08:07:08;;;;;;;;;;;24.20;99.90;;;;;;4917257;29;19915;-47
2023/03/25 08:09:33;;;;;;;;;;;24.10;99.90;;;;;;4917297;29;19990;-47
2023/03/25 08:11:59;;;;;;;;;;;24.20;99.90;;;;;;4917400;29;19907;-47
2023/03/25 08:14:24;;;;;;;;;;;24.20;99.90;;;;;;4917051;29;19915;-47
2023/03/25 08:16:50;;;;;;;;;;;24.20;99.90;;;;;;4932059;29;20379;-47
2023/03/25 08:19:16;;;;;;;;;;;24.20;99.90;;;;;;4916935;29;19915;-48
2023/03/25 08:21:41;;;;;;;;;;;24.20;99.90;;;;;;4947392;28;19913;-47
2023/03/25 08:24:07;;;;;;;;;;;24.20;99.90;;;;;;4931483;29;20391;-48
2023/03/25 08:26:33;;;;;;;;;;;24.20;99.90;;;;;;4917161;29;19907;-48
2023/03/25 08:29:01;;;;;;;;;;;24.20;99.90;;;;;;4917055;29;19955;-48
2023/03/25 08:31:29;;;;;;;;;;;24.30;99.90;;;;;;4917149;29;19907;-47
2023/03/25 08:34:02;;;;;;;;;;;24.20;99.90;;;;;;4916734;29;19954;-48
2023/03/25 08:36:27;;;;;;;;;;;24.30;99.90;;;;;;4917314;29;20009;-48
2023/03/25 08:38:53;;;;;;;;;;;24.30;99.90;;;;;;4916702;29;19915;-47
2023/03/25 08:41:19;;;;;;;;;;;24.30;99.90;;;;;;4916622;29;19962;-48
2023/03/25 08:43:46;;;;;;;;;;;24.30;99.90;;;;;;4916625;29;19907;-48
2023/03/25 08:46:11;;;;;;;;;;;24.30;99.90;;;;;;4916412;29;20272;-47
2023/03/25 08:48:37;;;;;;;;;;;24.30;99.90;;;;;;4916682;29;19911;-47
2023/03/25 08:51:03;;;;;;;;;;;24.30;99.90;;;;;;4916745;29;19915;-48
2023/03/25 08:53:29;;;;;;;;;;;24.30;99.90;;;;;;4916681;29;19907;-48
2023/03/25 08:55:55;;;;;;;;;;;24.30;99.90;;;;;;4916492;29;19934;-48
2023/03/25 08:58:21;;;;;;;;;;;24.30;99.90;;;;;;4916581;29;19907;-47
2023/03/25 09:00:48;;;;;;;;;;;24.30;99.90;;;;;;4916232;29;20009;-48
2023/03/25 09:03:13;;;;;;;;;;;24.40;99.90;;;;;;4916489;29;19914;-48
2023/03/25 09:05:39;;;;;;;;;;;24.40;99.90;;;;;;4916303;29;20268;-50
2023/03/25 09:08:06;;;;;;;;;;;24.40;99.90;;;;;;4916437;29;20431;-48
2023/03/25 09:10:31;;;;;;;;;;;24.40;99.90;;;;;;4916482;29;20002;-48
2023/03/25 09:12:57;;;;;;;;;;;24.40;99.90;;;;;;4916470;29;20006;-48
2023/03/25 09:15:23;;;;;;;;;;;24.40;99.90;;;;;;4916234;29;19907;-48
2023/03/25 09:17:48;;;;;;;;;;;24.40;99.90;;;;;;4916388;29;19930;-48
2023/03/25 09:20:14;;;;;;;;;;;24.40;99.90;;;;;;4916359;29;19915;-48
2023/03/25 09:22:40;;;;;;;;;;;24.40;99.90;;;;;;4915952;29;20317;-48
2023/03/25 09:25:06;;;;;;;;;;;24.40;99.90;;;;;;4930993;29;19953;-48
2023/03/25 09:27:32;;;;;;;;;;;24.40;99.90;;;;;;4916509;29;20364;-48
2023/03/25 09:29:58;;;;;;;;;;;24.50;99.90;;;;;;4916384;29;19997;-47
2023/03/25 09:32:24;;;;;;;;;;;24.50;99.90;;;;;;4916332;29;19989;-49
2023/03/25 09:34:50;;;;;;;;;;;24.50;99.90;;;;;;4934949;29;19914;-49
2023/03/25 09:37:16;;;;;;;;;;;24.50;99.90;;;;;;4920029;29;19907;-48
2023/03/25 09:39:42;;;;;;;;;;;24.50;99.90;;;;;;4920659;29;19971;-48
2023/03/25 09:42:07;;;;;;;;;;;24.50;99.90;;;;;;4919968;29;19911;-48
2023/03/25 09:44:51;;;;;;;;;;;24.50;99.90;;;;;;4920294;29;20356;-48
2023/03/25 09:47:19;;;;;;;;;;;24.50;99.90;;;;;;4919815;29;19977;-48
2023/03/25 09:49:52;;;;;;;;;;;24.60;99.90;;;;;;4934534;29;20002;-48
2023/03/25 09:52:32;;;;;;;;;;;24.60;99.90;;;;;;4919690;29;20399;-48
2023/03/25 09:55:00;;;;;;;;;;;24.60;99.90;;;;;;4919873;29;19922;-48
2023/03/25 09:57:27;;;;;;;;;;;24.60;99.90;;;;;;4919570;29;19907;-48
2023/03/25 09:59:55;;;;;;;;;;;24.60;99.90;;;;;;4918242;29;19919;-47
2023/03/25 10:02:24;;;;;;;;;;;24.70;99.90;;;;;;4933834;29;19955;-48
2023/03/25 10:05:08;;;;;;;;;;;24.70;99.90;;;;;;4919488;29;19911;-48
2023/03/25 10:07:54;;;;;;;;;;;24.70;99.90;;;;;;4919541;29;19917;-48
2023/03/25 10:10:28;;;;;;;;;;;24.70;99.90;;;;;;4919334;29;19911;-48
2023/03/25 10:13:01;;;;;;;;;;;24.70;99.90;;;;;;4919190;29;19907;-48
2023/03/25 10:15:47;;;;;;;;;;;24.70;99.90;;;;;;4919601;29;20335;-48
2023/03/25 10:18:28;;;;;;;;;;;24.80;99.90;;;;;;4919259;29;19914;-48
2023/03/25 10:21:14;;;;;;;;;;;24.80;99.90;;;;;;4919194;29;20291;-48
2023/03/25 10:23:41;;;;;;;;;;;24.80;99.90;;;;;;4919042;29;19914;-48
2023/03/25 10:26:14;;;;;;;;;;;24.80;99.90;;;;;;4919299;29;19907;-47
2023/03/25 10:28:43;;;;;;;;;;;24.90;99.90;;;;;;4919087;29;20355;-48
2023/03/25 10:31:12;;;;;;;;;;;24.90;99.90;;;;;;4919039;29;19907;-48
2023/03/25 10:33:40;;;;;;;;;;;24.90;99.90;;;;;;4919179;29;19918;-48
2023/03/25 10:36:09;;;;;;;;;;;24.90;99.90;;;;;;4919062;29;19907;-48
2023/03/25 10:38:36;;;;;;;;;;;24.90;99.90;;;;;;4919024;29;19998;-47
2023/03/25 10:41:21;;;;;;;;;;;25.00;99.90;;;;;;4918866;29;19950;-47
2023/03/25 10:43:46;;;;;;;;;;;25.00;99.90;;;;;;4918549;29;19907;-48
2023/03/25 10:46:24;;;;;;;;;;;25.00;99.90;;;;;;4918791;29;19954;-47
2023/03/25 10:48:49;;;;;;;;;;;25.00;99.90;;;;;;4918553;29;20379;-47
2023/03/25 10:51:23;;;;;;;;;;;25.10;99.90;;;;;;4918940;29;19915;-48
2023/03/25 10:53:51;;;;;;;;;;;25.10;99.90;;;;;;4918646;29;19915;-48
2023/03/25 10:56:25;;;;;;;;;;;25.10;99.90;;;;;;4918610;29;19907;-48
2023/03/25 10:58:52;;;;;;;;;;;25.10;99.90;;;;;;4918377;29;19926;-51
2023/03/25 11:01:20;;;;;;;;;;;25.20;99.90;;;;;;4918330;29;19929;-48
2023/03/25 11:03:49;;;;;;;;;;;25.20;99.90;;;;;;4918439;29;19907;-48
2023/03/25 11:06:25;;;;;;;;;;;25.20;99.90;;;;;;4918632;29;19958;-48
2023/03/25 11:08:57;;;;;;;;;;;25.20;99.90;;;;;;4918172;29;20014;-48
2023/03/25 11:11:32;;;;;;;;;;;25.30;99.90;;;;;;4918408;29;19907;-48
2023/03/25 11:13:58;;;;;;;;;;;25.30;99.90;;;;;;4918272;29;20264;-48
2023/03/25 11:16:24;;;;;;;;;;;25.30;99.90;;;;;;4918393;29;19963;-47
2023/03/25 11:18:50;;;;;;;;;;;25.30;99.90;;;;;;4918176;29;19915;-48
2023/03/25 11:21:16;;;;;;;;;;;25.30;99.90;;;;;;4918165;29;19990;-48
2023/03/25 11:23:43;;;;;;;;;;;25.40;99.90;;;;;;4918305;29;20328;-48
2023/03/25 11:26:17;;;;;;;;;;;25.40;99.90;;;;;;4913826;29;19908;-48
2023/03/25 11:28:47;;;;;;;;;;;25.40;99.90;;;;;;4912042;29;20280;-48
2023/03/25 11:31:12;;;;;;;;;;;25.40;99.90;;;;;;4918184;29;19907;-48
2023/03/25 11:33:39;;;;;;;;;;;25.40;99.90;;;;;;4918331;29;19914;-47
2023/03/25 11:36:23;;;;;;;;;;;25.50;99.90;;;;;;4917975;29;19907;-48
2023/03/25 11:38:56;;;;;;;;;;;25.50;99.90;;;;;;4917700;29;19919;-47
2023/03/25 11:41:21;;;;;;;;;;;25.50;99.90;;;;;;4917912;29;20375;-47
2023/03/25 11:43:48;;;;;;;;;;;25.50;99.90;;;;;;4917862;29;20114;-47
2023/03/25 11:46:15;;;;;;;;;;;25.50;99.90;;;;;;4916568;29;19907;-48
2023/03/25 11:48:41;;;;;;;;;;;25.60;99.90;;;;;;4918223;29;20029;-47
2023/03/25 11:51:15;;;;;;;;;;;25.60;99.90;;;;;;4917961;29;19954;-47
2023/03/25 11:53:45;;;;;;;;;;;25.60;99.90;;;;;;4917810;29;19914;-47
2023/03/25 11:56:14;;;;;;;;;;;25.60;99.90;;;;;;4916969;29;20317;-47
2023/03/25 11:58:40;;;;;;;;;;;25.60;99.90;;;;;;4917609;29;20324;-47
2023/03/25 12:01:27;;;;;;;;;;;25.70;99.90;;;;;;4917223;29;19919;-47
2023/03/25 12:04:25;;;;;;;;;;;25.70;99.90;;;;;;4917115;29;19907;-48
2023/03/25 12:06:58;;;;;;;;;;;25.70;99.90;;;;;;4907658;29;19997;-47
2023/03/25 12:09:24;;;;;;;;;;;25.70;99.90;;;;;;4916018;29;19907;-47
2023/03/25 12:11:53;;;;;;;;;;;25.70;99.90;;;;;;4917177;29;19950;-48
2023/03/25 12:14:41;;;;;;;;;;;25.80;99.90;;;;;;4917077;29;19931;-47
2023/03/25 12:17:17;;;;;;;;;;;25.80;99.90;;;;;;4917084;29;20259;-47
2023/03/25 12:19:49;;;;;;;;;;;25.80;99.90;;;;;;4931989;29;19918;-47
2023/03/25 12:22:23;;;;;;;;;;;25.80;99.90;;;;;;4917064;29;19907;-48
2023/03/25 12:24:52;;;;;;;;;;;25.80;99.90;;;;;;4917080;29;19907;-47
2023/03/25 12:27:17;;;;;;;;;;;25.80;99.90;;;;;;4916991;29;19907;-48
2023/03/25 12:29:46;;;;;;;;;;;25.80;99.90;;;;;;4917257;29;19914;-47
2023/03/25 12:32:11;;;;;;;;;;;25.90;99.90;;;;;;4917000;29;19907;-47
2023/03/25 12:35:16;;;;;;;;;;;25.90;99.90;;;;;;4916865;29;19917;-47
2023/03/25 12:38:20;;;;;;;;;;;25.90;99.90;;;;;;4914880;29;20249;-48
2023/03/25 12:40:58;;;;;;;;;;;25.90;99.90;;;;;;4876872;29;19916;-47
2023/03/25 12:43:33;;;;;;;;;;;25.90;99.90;;;;;;4887099;29;19908;-47
2023/03/25 12:46:09;;;;;;;;;;;25.90;99.90;;;;;;4908322;29;19997;-47
2023/03/25 12:48:35;;;;;;;;;;;26.00;99.90;;;;;;4916789;29;19907;-47
2023/03/25 12:51:04;;;;;;;;;;;26.00;99.90;;;;;;4916561;29;19907;-47
2023/03/25 12:53:30;;;;;;;;;;;26.00;99.90;;;;;;4916669;29;19914;-48
2023/03/25 12:56:14;;;;;;;;;;;26.00;99.90;;;;;;4916617;29;19938;-48
2023/03/25 12:58:58;;;;;;;;;;;26.00;99.90;;;;;;4916580;29;19918;-48
2023/03/25 13:01:42;;;;;;;;;;;26.00;99.90;;;;;;4905080;29;19994;-48
2023/03/25 13:04:11;;;;;;;;;;;26.00;99.90;;;;;;4916535;29;19950;-47
2023/03/25 13:06:37;;;;;;;;;;;26.10;99.90;;;;;;4916590;29;20323;-47
2023/03/25 13:09:13;;;;;;;;;;;26.10;99.90;;;;;;4916347;29;20002;-47
2023/03/25 13:11:51;;;;;;;;;;;26.10;99.90;;;;;;4916489;29;19954;-47
2023/03/25 13:14:23;;;;;;;;;;;26.10;99.90;;;;;;4916283;29;19914;-48
2023/03/25 13:16:51;;;;;;;;;;;26.10;99.90;;;;;;4916502;29;19907;-48
2023/03/25 13:19:21;;;;;;;;;;;26.10;99.90;;;;;;4916187;29;19922;-47
2023/03/25 13:21:58;;;;;;;;;;;26.10;99.90;;;;;;4916403;29;19970;-48
2023/03/25 13:24:42;;;;;;;;;;;26.20;99.90;;;;;;4916317;29;19953;-47
2023/03/25 13:27:11;;;;;;;;;;;26.10;99.90;;;;;;4916221;29;19990;-47
2023/03/25 13:29:57;;;;;;;;;;;26.10;99.90;;;;;;4916187;29;19907;-47
2023/03/25 13:32:32;;;;;;;;;;;26.20;99.90;;;;;;4915977;29;19994;-48
2023/03/25 13:35:06;;;;;;;;;;;26.20;99.90;;;;;;4916152;29;19994;-48
2023/03/25 13:37:41;;;;;;;;;;;26.20;99.90;;;;;;4915845;29;20002;-47
2023/03/25 13:40:13;;;;;;;;;;;26.20;99.90;;;;;;4915969;29;20006;-48
2023/03/25 13:42:45;;;;;;;;;;;26.20;99.90;;;;;;4915954;29;19911;-48
2023/03/25 13:45:21;;;;;;;;;;;26.20;99.90;;;;;;4916185;29;19907;-47
2023/03/25 13:47:49;;;;;;;;;;;26.20;99.90;;;;;;4916156;29;19907;-48
2023/03/25 13:50:19;;;;;;;;;;;26.30;99.90;;;;;;4916341;29;19910;-48
2023/03/25 13:52:48;;;;;;;;;;;26.30;99.90;;;;;;4916081;29;20336;-48
2023/03/25 13:55:19;;;;;;;;;;;26.30;99.90;;;;;;4916154;29;19907;-48
2023/03/25 13:58:02;;;;;;;;;;;26.30;99.90;;;;;;4916245;29;19907;-49
2023/03/25 14:01:06;;;;;;;;;;;26.30;99.90;;;;;;4915595;29;19958;-48
2023/03/25 14:03:50;;;;;;;;;;;26.30;99.90;;;;;;4857763;29;19908;-47
2023/03/25 14:06:35;;;;;;;;;;;26.30;99.90;;;;;;4858087;29;19908;-47
2023/03/25 14:09:19;;;;;;;;;;;26.30;99.90;;;;;;4899532;29;19926;-47
2023/03/25 14:11:44;;;;;;;;;;;26.30;99.90;;;;;;4916079;29;19911;-47
2023/03/25 14:14:12;;;;;;;;;;;26.30;99.90;;;;;;4915804;29;19918;-47
2023/03/25 14:16:41;;;;;;;;;;;26.30;99.90;;;;;;4915806;29;20245;-48
2023/03/25 14:19:11;;;;;;;;;;;26.40;99.90;;;;;;4916416;29;19915;-48
2023/03/25 14:21:38;;;;;;;;;;;26.30;99.90;;;;;;4919449;29;19907;-48
2023/03/25 14:24:16;;;;;;;;;;;26.40;99.90;;;;;;4919108;29;19944;-48
2023/03/25 14:26:54;;;;;;;;;;;26.30;99.90;;;;;;4933830;29;19907;-47
2023/03/25 14:29:32;;;;;;;;;;;26.40;99.90;;;;;;4919216;29;19907;-48